Time;durP1;ratioP1;P1;durP2;ratioP2;P2;SDS_P1;SDS_P2;PMS_P1;PMS_P2;Temp;Humidity;BMP_temperature;BMP_pressure;BME280_temperature;BME280_humidity;BME280_pressure;Samples;Min_cycle;Max_cycle;Signal;HPM_P1;HPM_P2
2021/12/11 00:01:10;;;;;;;;;;;;;;;3.24;82.84;94385.88;5033465;28;1061;-48
2021/12/11 00:03:39;;;;;;;;;;;;;;;3.21;83.91;94386.97;5033553;28;978;-48
2021/12/11 00:06:11;;;;;;;;;;;;;;;2.96;83.06;94372.47;5033301;28;1910;-48
2021/12/11 00:08:38;;;;;;;;;;;;;;;2.90;83.26;94375.59;5033420;28;1026;-48
2021/12/11 00:11:07;;;;;;;;;;;;;;;3.03;84.03;94378.03;5033555;28;990;-48
2021/12/11 00:13:39;;;;;;;;;;;;;;;3.13;84.32;94385.00;5033330;28;1033;-48
2021/12/11 00:16:06;;;;;;;;;;;;;;;3.21;83.75;94391.44;5033205;28;974;-48
2021/12/11 00:18:32;;;;;;;;;;;;;;;3.06;82.73;94388.31;5033397;28;931;-48
2021/12/11 00:20:58;;;;;;;;;;;;;;;3.07;83.61;94389.97;5032995;28;1054;-48
2021/12/11 00:23:36;;;;;;;;;;;;;;;3.15;83.71;94381.38;5033193;28;995;-48
2021/12/11 00:26:03;;;;;;;;;;;;;;;3.10;83.75;94379.16;5033261;28;1906;-48
2021/12/11 00:28:29;;;;;;;;;;;;;;;3.16;83.33;94381.25;5032859;28;1245;-48
2021/12/11 00:30:56;;;;;;;;;;;;;;;3.19;83.15;94382.78;5033373;28;1000;-48
2021/12/11 00:33:24;;;;;;;;;;;;;;;3.23;83.25;94379.75;5033232;28;1069;-48
2021/12/11 00:35:56;;;;;;;;;;;;;;;3.22;83.29;94380.72;5033045;28;1041;-48
2021/12/11 00:38:34;;;;;;;;;;;;;;;3.23;82.51;94374.47;5033057;28;979;-48
2021/12/11 00:41:04;;;;;;;;;;;;;;;3.12;83.30;94366.66;5033235;28;998;-48
2021/12/11 00:43:34;;;;;;;;;;;;;;;3.06;82.68;94368.03;5033205;28;1038;-48
2021/12/11 00:46:03;;;;;;;;;;;;;;;3.01;82.60;94374.69;5033864;28;1906;-48
2021/12/11 00:48:29;;;;;;;;;;;;;;;2.97;83.26;94370.63;5036647;28;970;-48
2021/12/11 00:51:02;;;;;;;;;;;;;;;2.91;83.43;94362.28;5036467;28;958;-48
2021/12/11 00:53:37;;;;;;;;;;;;;;;3.01;83.73;94367.59;5036265;28;1113;-48
2021/12/11 00:56:14;;;;;;;;;;;;;;;2.97;82.87;94360.06;5036620;28;998;-48
2021/12/11 00:58:41;;;;;;;;;;;;;;;2.94;83.40;94355.91;5036588;28;1009;-48
2021/12/11 01:01:07;;;;;;;;;;;;;;;2.90;83.77;94354.47;5036613;28;967;-48
2021/12/11 01:03:50;;;;;;;;;;;;;;;3.15;83.44;94347.03;5036158;28;978;-48
2021/12/11 01:06:21;;;;;;;;;;;;;;;3.21;83.14;94344.72;5036448;28;1910;-48
2021/12/11 01:08:54;;;;;;;;;;;;;;;3.21;82.85;94334.16;5036014;28;1006;-48
2021/12/11 01:11:23;;;;;;;;;;;;;;;3.11;83.35;94339.41;5036457;28;1020;-48
2021/12/11 01:13:53;;;;;;;;;;;;;;;3.18;83.41;94329.13;5036475;28;1040;-48
2021/12/11 01:16:21;;;;;;;;;;;;;;;3.54;82.25;94307.47;5036575;28;1093;-48
2021/12/11 01:18:49;;;;;;;;;;;;;;;4.06;79.70;94327.34;5036150;28;1068;-47
2021/12/11 01:21:42;;;;;;;;;;;;;;;4.47;77.65;94319.97;5036113;28;1016;-48
2021/12/11 01:25:02;;;;;;;;;;;;;;;5.02;74.36;94318.38;5035870;28;1897;-48
2021/12/11 01:27:05;;;;;;;;;;;;;;;5.22;74.35;94305.84;5028844;28;1919;-48
2021/12/11 01:29:32;;;;;;;;;;;;;;;5.13;75.05;94312.88;5035971;28;1049;-48
2021/12/11 01:31:58;;;;;;;;;;;;;;;5.07;75.31;94308.16;5035889;28;1065;-48
2021/12/11 01:34:25;;;;;;;;;;;;;;;4.98;76.28;94314.34;5035875;28;1044;-48
2021/12/11 01:36:52;;;;;;;;;;;;;;;4.75;78.23;94319.22;5035980;28;1072;-48
2021/12/11 01:39:20;;;;;;;;;;;;;;;4.69;78.27;94321.44;5035812;28;1052;-48
2021/12/11 01:41:47;;;;;;;;;;;;;;;4.57;78.78;94333.22;5035505;28;1883;-48
2021/12/11 01:44:16;;;;;;;;;;;;;;;4.33;80.08;94324.94;5035754;28;935;-48
2021/12/11 01:46:43;;;;;;;;;;;;;;;4.06;81.26;94318.53;5035525;28;1910;-48
2021/12/11 01:49:14;;;;;;;;;;;;;;;3.96;81.79;94309.81;5035459;28;1069;-48
2021/12/11 01:52:00;;;;;;;;;;;;;;;3.94;81.75;94304.66;5035674;28;986;-48
2021/12/11 01:54:31;;;;;;;;;;;;;;;3.91;82.89;94303.13;5035342;28;1085;-48
2021/12/11 01:57:01;;;;;;;;;;;;;;;4.05;82.14;94303.66;5035510;28;1062;-48
2021/12/11 01:59:29;;;;;;;;;;;;;;;4.05;82.01;94293.09;5035522;28;1005;-48
2021/12/11 02:02:03;;;;;;;;;;;;;;;3.96;82.46;94292.13;5035322;28;986;-48
2021/12/11 02:04:30;;;;;;;;;;;;;;;4.00;82.48;94296.13;5035347;28;1041;-48
2021/12/11 02:06:59;;;;;;;;;;;;;;;4.24;81.45;94295.69;5035217;28;1914;-48
2021/12/11 02:09:28;;;;;;;;;;;;;;;4.33;81.32;94290.53;5034971;28;1088;-48
2021/12/11 02:12:11;;;;;;;;;;;;;;;4.44;80.71;94301.75;5035106;28;978;-48
2021/12/11 02:14:42;;;;;;;;;;;;;;;4.43;80.85;94304.53;5035228;28;970;-48
2021/12/11 02:17:21;;;;;;;;;;;;;;;4.39;81.11;94295.22;5034722;28;1041;-48
2021/12/11 02:19:47;;;;;;;;;;;;;;;4.40;81.05;94292.44;5035157;28;982;-48
2021/12/11 02:22:16;;;;;;;;;;;;;;;4.32;81.92;94287.03;5034952;28;978;-48
2021/12/11 02:24:47;;;;;;;;;;;;;;;4.27;81.92;94292.75;5034569;28;1312;-48
2021/12/11 02:27:24;;;;;;;;;;;;;;;4.33;82.31;94296.63;5034625;28;1983;-48
2021/12/11 02:30:00;;;;;;;;;;;;;;;4.49;81.75;94286.25;5034908;28;1065;-48
2021/12/11 02:32:32;;;;;;;;;;;;;;;4.42;81.97;94293.13;5035043;28;970;-48
2021/12/11 02:35:24;;;;;;;;;;;;;;;4.35;82.41;94291.22;5034546;28;1100;-48
2021/12/11 02:58:52;;;;;;;;;;;;;;;5.51;76.82;94242.00;5090811;27;1445;-48
2021/12/11 03:01:27;;;;;;;;;;;;;;;5.49;76.94;94233.38;5091066;28;1068;-48
2021/12/11 03:04:03;;;;;;;;;;;;;;;5.50;77.58;94242.16;5090966;28;969;-48
2021/12/11 03:06:38;;;;;;;;;;;;;;;5.41;78.33;94228.84;5090443;28;1984;-48
2021/12/11 03:09:04;;;;;;;;;;;;;;;5.37;79.48;94223.97;5090730;28;1055;-48
2021/12/11 03:11:31;;;;;;;;;;;;;;;5.37;79.82;94245.19;5090639;28;1004;-47
2021/12/11 03:13:58;;;;;;;;;;;;;;;5.37;80.53;94243.38;5090512;28;1099;-48
2021/12/11 03:16:26;;;;;;;;;;;;;;;5.31;80.67;94224.59;5090734;28;1005;-48
2021/12/11 03:18:53;;;;;;;;;;;;;;;5.33;81.04;94235.88;5090448;28;1052;-47
2021/12/11 03:21:20;;;;;;;;;;;;;;;5.28;81.14;94246.94;5090586;28;1051;-48
2021/12/11 03:23:46;;;;;;;;;;;;;;;5.15;81.54;94249.94;5090174;28;1300;-48
2021/12/11 03:26:12;;;;;;;;;;;;;;;5.12;82.20;94246.78;5090562;28;1937;-47
2021/12/11 03:28:38;;;;;;;;;;;;;;;5.04;82.04;94243.03;5090274;28;988;-48
2021/12/11 03:31:06;;;;;;;;;;;;;;;5.05;82.43;94235.94;5090524;28;1008;-47
2021/12/11 03:33:40;;;;;;;;;;;;;;;5.03;82.41;94235.28;5090238;28;1052;-48
2021/12/11 03:36:08;;;;;;;;;;;;;;;5.02;82.51;94237.06;5090004;28;1869;-48
2021/12/11 03:38:35;;;;;;;;;;;;;;;5.03;82.20;94237.91;5090390;28;980;-48
2021/12/11 03:41:01;;;;;;;;;;;;;;;5.03;82.52;94212.25;5090099;28;985;-48
2021/12/11 03:43:28;;;;;;;;;;;;;;;5.16;82.22;94218.97;5090170;28;1062;-47
2021/12/11 03:45:56;;;;;;;;;;;;;;;5.24;81.79;94213.78;5090236;28;977;-48
2021/12/11 03:48:30;;;;;;;;;;;;;;;5.29;81.20;94211.50;5090041;28;1917;-48
2021/12/11 03:50:57;;;;;;;;;;;;;;;5.27;81.73;94211.66;5089961;28;1981;-47
2021/12/11 03:53:24;;;;;;;;;;;;;;;5.15;82.02;94206.72;5090050;28;1064;-48
2021/12/11 03:55:53;;;;;;;;;;;;;;;5.08;82.13;94201.19;5089859;28;1088;-48
2021/12/11 03:58:19;;;;;;;;;;;;;;;5.03;82.79;94198.19;5100868;28;1484;-48
2021/12/11 04:00:50;;;;;;;;;;;;;;;4.95;83.26;94198.94;5096693;28;1049;-47
2021/12/11 04:16:06;;;;;;;;;;;;;;;4.96;83.44;94205.88;5131917;27;1344;-47
2021/12/11 04:18:33;;;;;;;;;;;;;;;4.93;83.24;94202.69;5131743;28;1048;-47
2021/12/11 04:20:59;;;;;;;;;;;;;;;4.97;83.05;94202.25;5131870;27;1048;-47
2021/12/11 04:23:25;;;;;;;;;;;;;;;5.01;83.35;94208.91;5131612;27;1918;-47
2021/12/11 04:25:53;;;;;;;;;;;;;;;5.04;83.32;94199.84;5131653;27;1041;-47
2021/12/11 04:28:21;;;;;;;;;;;;;;;5.17;83.34;94195.00;5131675;27;1040;-47
2021/12/11 04:30:53;;;;;;;;;;;;;;;5.28;83.62;94194.75;5131838;27;1008;-47
2021/12/11 04:33:20;;;;;;;;;;;;;;;5.33;83.32;94178.41;5131377;27;1114;-47
2021/12/11 04:35:46;;;;;;;;;;;;;;;5.30;84.10;94175.22;5131327;27;1037;-47
2021/12/11 04:38:14;;;;;;;;;;;;;;;5.16;84.55;94185.38;5131633;27;1044;-47
2021/12/11 04:40:42;;;;;;;;;;;;;;;5.08;84.96;94182.66;5131465;27;1295;-47
2021/12/11 04:43:14;;;;;;;;;;;;;;;5.21;83.65;94180.44;5131273;27;2112;-47
2021/12/11 04:45:46;;;;;;;;;;;;;;;5.28;82.97;94176.22;5130173;28;1096;-47
2021/12/11 04:48:43;;;;;;;;;;;;;;;5.36;82.66;94187.88;5131257;27;1052;-47
2021/12/11 04:51:26;;;;;;;;;;;;;;;5.38;82.81;94184.06;5131269;27;1070;-47
2021/12/11 05:02:48;;;;;;;;;;;;;;;5.30;82.53;94183.19;5131069;27;1015;-46
2021/12/11 05:04:54;;;;;;;;;;;;;;;5.17;83.43;94173.78;5130621;28;1984;-47
2021/12/11 05:09:55;;;;;;;;;;;;;;;5.23;82.81;94181.13;5130911;27;1080;-47
2021/12/11 05:14:51;;;;;;;;;;;;;;;5.19;82.71;94189.53;5129964;27;1343;-47
2021/12/11 05:17:18;;;;;;;;;;;;;;;5.21;82.93;94183.09;5116623;28;1036;-47
2021/12/11 05:19:45;;;;;;;;;;;;;;;5.30;83.28;94188.50;5117200;28;1039;-47
2021/12/11 05:22:11;;;;;;;;;;;;;;;5.38;82.49;94193.84;5116899;28;1126;-47
2021/12/11 05:24:39;;;;;;;;;;;;;;;5.40;81.91;94189.22;5116828;28;1977;-47
2021/12/11 05:27:05;;;;;;;;;;;;;;;5.38;82.21;94181.41;5117227;27;988;-47
2021/12/11 05:29:31;;;;;;;;;;;;;;;5.36;82.79;94186.03;5117067;28;1120;-47
2021/12/11 05:31:57;;;;;;;;;;;;;;;5.35;82.42;94189.69;5117082;28;1083;-47
2021/12/11 05:34:23;;;;;;;;;;;;;;;5.35;82.92;94192.34;5116920;28;964;-47
2021/12/11 05:36:49;;;;;;;;;;;;;;;5.36;82.50;94194.00;5116970;28;1055;-47
2021/12/11 05:39:17;;;;;;;;;;;;;;;5.35;82.58;94194.16;5116552;28;1096;-47
2021/12/11 05:41:44;;;;;;;;;;;;;;;5.36;82.46;94195.81;5116904;28;1140;-47
2021/12/11 05:44:11;;;;;;;;;;;;;;;5.29;82.86;94192.94;5116566;28;1902;-46
2021/12/11 05:46:38;;;;;;;;;;;;;;;5.35;83.00;94202.09;5116734;28;1055;-46
2021/12/11 05:49:05;;;;;;;;;;;;;;;5.35;82.75;94194.16;5116591;27;972;-47
2021/12/11 05:51:38;;;;;;;;;;;;;;;5.38;82.77;94205.28;5116595;27;969;-47
2021/12/11 05:54:05;;;;;;;;;;;;;;;5.40;82.73;94198.00;5116629;28;977;-47
2021/12/11 05:56:35;;;;;;;;;;;;;;;5.39;82.72;94201.66;5116418;28;972;-47
2021/12/11 05:59:02;;;;;;;;;;;;;;;5.46;82.69;94209.81;5116541;28;987;-47
2021/12/11 06:01:30;;;;;;;;;;;;;;;5.39;82.86;94206.13;5116320;28;996;-47
2021/12/11 06:03:58;;;;;;;;;;;;;;;5.40;82.64;94198.00;5116424;28;1909;-47
2021/12/11 06:06:24;;;;;;;;;;;;;;;5.38;83.36;94191.19;5116332;28;1055;-47
2021/12/11 06:08:50;;;;;;;;;;;;;;;5.38;83.15;94192.03;5116286;28;1043;-47
2021/12/11 06:11:17;;;;;;;;;;;;;;;5.36;82.46;94191.34;5116146;28;1083;-47
2021/12/11 06:13:44;;;;;;;;;;;;;;;5.48;82.27;94192.78;5115567;28;1489;-48
2021/12/11 06:16:10;;;;;;;;;;;;;;;5.52;82.80;94179.19;5115864;28;1138;-47
2021/12/11 06:31:19;;;;;;;;;;;;;;;5.84;82.14;94178.59;5131653;27;1278;-46
2021/12/11 06:33:47;;;;;;;;;;;;;;;5.82;82.22;94176.13;5131890;27;1064;-47
2021/12/11 06:36:14;;;;;;;;;;;;;;;5.86;82.72;94172.16;5130523;28;981;-47
2021/12/11 06:38:42;;;;;;;;;;;;;;;5.74;83.75;94172.56;5131384;27;1909;-47
2021/12/11 06:41:09;;;;;;;;;;;;;;;5.73;83.81;94170.91;5131736;27;1131;-46
2021/12/11 06:43:36;;;;;;;;;;;;;;;5.62;84.61;94169.34;5131504;27;1028;-47
2021/12/11 06:46:02;;;;;;;;;;;;;;;5.70;83.92;94164.09;5131568;27;1011;-47
2021/12/11 06:48:29;;;;;;;;;;;;;;;5.84;83.01;94150.28;5131298;27;992;-47
2021/12/11 06:50:56;;;;;;;;;;;;;;;5.80;84.02;94156.03;5131629;27;1275;-47
2021/12/11 06:53:26;;;;;;;;;;;;;;;5.85;83.68;94161.72;5131572;27;1016;-46
2021/12/11 06:55:52;;;;;;;;;;;;;;;5.79;84.22;94163.16;5131394;27;1322;-47
2021/12/11 06:58:18;;;;;;;;;;;;;;;5.83;83.48;94159.22;5130079;28;1053;-47
2021/12/11 07:00:44;;;;;;;;;;;;;;;5.81;84.11;94161.19;5131103;27;1917;-47
2021/12/11 07:03:10;;;;;;;;;;;;;;;5.73;84.99;94168.25;5130969;27;1150;-47
2021/12/11 07:05:37;;;;;;;;;;;;;;;5.73;84.66;94171.75;5130936;27;1060;-47
2021/12/11 07:08:05;;;;;;;;;;;;;;;5.81;84.47;94163.03;5131451;27;1039;-47
2021/12/11 07:10:32;;;;;;;;;;;;;;;5.81;84.87;94157.72;5130934;27;1048;-47
2021/12/11 07:12:57;;;;;;;;;;;;;;;5.77;85.03;94151.88;5130949;27;1021;-47
2021/12/11 07:15:24;;;;;;;;;;;;;;;5.76;85.41;94149.38;5131118;28;1075;-47
2021/12/11 07:17:50;;;;;;;;;;;;;;;5.67;85.99;94156.44;5130944;28;1005;-47
2021/12/11 07:20:16;;;;;;;;;;;;;;;5.66;86.68;94146.84;5131124;28;1906;-47
2021/12/11 07:22:42;;;;;;;;;;;;;;;5.65;86.70;94137.19;5130870;27;1092;-47
2021/12/11 07:25:12;;;;;;;;;;;;;;;5.66;87.27;94128.28;5130968;27;980;-47
2021/12/11 07:27:38;;;;;;;;;;;;;;;5.73;86.95;94131.97;5131044;27;1063;-47
2021/12/11 07:30:04;;;;;;;;;;;;;;;5.76;87.24;94130.81;5129707;28;1260;-46
2021/12/11 07:32:30;;;;;;;;;;;;;;;5.82;87.06;94122.22;5116459;28;1048;-47
2021/12/11 07:34:56;;;;;;;;;;;;;;;5.80;86.71;94125.03;5117091;28;1054;-47
2021/12/11 07:37:22;;;;;;;;;;;;;;;5.84;87.31;94115.78;5116880;28;1096;-46
2021/12/11 07:39:48;;;;;;;;;;;;;;;5.80;87.21;94122.38;5117042;28;1993;-47
2021/12/11 07:42:15;;;;;;;;;;;;;;;5.87;87.02;94115.47;5116808;28;1064;-46
2021/12/11 07:44:41;;;;;;;;;;;;;;;5.98;86.78;94114.41;5117066;28;984;-47
2021/12/11 07:47:07;;;;;;;;;;;;;;;5.97;86.50;94111.91;5116625;28;976;-46
2021/12/11 07:49:33;;;;;;;;;;;;;;;6.01;86.04;94115.88;5116838;28;1059;-47
2021/12/11 07:51:59;;;;;;;;;;;;;;;6.05;85.25;94112.78;5116613;28;1874;-47
2021/12/11 07:54:25;;;;;;;;;;;;;;;6.16;83.87;94114.28;5116682;28;1048;-47
2021/12/11 07:56:53;;;;;;;;;;;;;;;6.24;83.44;94110.84;5116897;28;980;-47
2021/12/11 07:59:19;;;;;;;;;;;;;;;6.27;83.00;94115.84;5116401;28;1988;-47
2021/12/11 08:01:47;;;;;;;;;;;;;;;6.28;82.80;94106.03;5116277;28;1079;-47
2021/12/11 08:04:14;;;;;;;;;;;;;;;6.22;82.48;94120.78;5116661;28;984;-47
2021/12/11 08:06:41;;;;;;;;;;;;;;;6.22;81.74;94128.75;5116435;28;1045;-47
2021/12/11 08:09:08;;;;;;;;;;;;;;;6.25;80.76;94120.47;5116263;28;1108;-47
2021/12/11 08:11:35;;;;;;;;;;;;;;;6.33;81.36;94123.16;5116548;28;1070;-47
2021/12/11 08:14:02;;;;;;;;;;;;;;;6.35;80.75;94118.50;5116512;28;1060;-47
2021/12/11 08:16:33;;;;;;;;;;;;;;;6.34;81.22;94114.22;5116026;28;959;-47
2021/12/11 08:19:00;;;;;;;;;;;;;;;6.29;81.17;94127.13;5116444;28;1901;-47
2021/12/11 08:21:26;;;;;;;;;;;;;;;6.22;80.93;94115.47;5116190;28;1099;-47
2021/12/11 08:23:55;;;;;;;;;;;;;;;6.24;80.82;94116.16;5116291;28;1051;-48
2021/12/11 08:26:25;;;;;;;;;;;;;;;6.29;80.64;94108.53;5116245;28;972;-47
2021/12/11 08:28:52;;;;;;;;;;;;;;;6.24;81.13;94117.00;5115923;28;1282;-51
2021/12/11 08:31:20;;;;;;;;;;;;;;;6.22;81.31;94118.13;5115878;28;1056;-46
2021/12/11 08:33:46;;;;;;;;;;;;;;;6.19;82.00;94126.44;5116119;28;993;-47
2021/12/11 08:36:13;;;;;;;;;;;;;;;6.19;81.50;94121.13;5115769;28;1044;-47
2021/12/11 08:38:39;;;;;;;;;;;;;;;6.26;80.94;94124.81;5115646;28;1906;-47
2021/12/11 08:41:09;;;;;;;;;;;;;;;6.31;81.55;94117.19;5115740;28;960;-47
2021/12/11 08:43:36;;;;;;;;;;;;;;;6.32;81.45;94112.69;5114582;28;2038;-47
2021/12/11 08:46:13;;;;;;;;;;;;;;;6.33;81.28;94109.88;5115631;28;976;-47
2021/12/11 08:48:43;;;;;;;;;;;;;;;6.35;80.90;94117.69;5115723;28;1023;-46
2021/12/11 08:51:22;;;;;;;;;;;;;;;6.37;80.98;94113.06;5115796;28;1099;-47
2021/12/11 08:53:50;;;;;;;;;;;;;;;6.38;80.30;94117.38;5115479;28;1049;-47
2021/12/11 08:56:16;;;;;;;;;;;;;;;6.41;81.32;94106.41;5115595;28;1068;-47
2021/12/11 08:58:44;;;;;;;;;;;;;;;6.43;80.94;94107.94;5115565;28;2002;-47
2021/12/11 09:01:16;;;;;;;;;;;;;;;6.42;80.93;94106.25;5115230;28;1059;-48
2021/12/11 09:03:58;;;;;;;;;;;;;;;6.43;81.53;94107.94;5115491;28;1040;-47
2021/12/11 09:06:33;;;;;;;;;;;;;;;6.37;82.07;94095.28;5115404;28;1059;-47
2021/12/11 09:09:25;;;;;;;;;;;;;;;6.45;81.38;94092.69;5115132;28;1123;-47
2021/12/11 09:11:56;;;;;;;;;;;;;;;6.34;82.31;94079.69;5091352;28;1252;-47
2021/12/11 09:14:22;;;;;;;;;;;;;;;6.38;82.00;94085.53;5115078;28;1024;-47
2021/12/11 09:16:48;;;;;;;;;;;;;;;6.36;81.90;94080.38;5104566;28;976;-47
2021/12/11 09:19:17;;;;;;;;;;;;;;;6.37;82.59;94075.88;5114341;28;1909;-47
2021/12/11 09:21:49;;;;;;;;;;;;;;;6.41;82.69;94070.09;5114626;28;1020;-47
2021/12/11 09:24:23;;;;;;;;;;;;;;;6.45;82.83;94060.81;5115111;28;980;-47
2021/12/11 09:26:55;;;;;;;;;;;;;;;6.59;83.14;94063.81;5114994;28;1130;-47
2021/12/11 09:29:24;;;;;;;;;;;;;;;6.63;83.44;94058.00;5113915;28;1146;-47
2021/12/11 09:31:57;;;;;;;;;;;;;;;6.71;83.84;94070.47;5114368;28;1972;-47
2021/12/11 09:34:27;;;;;;;;;;;;;;;6.72;83.39;94066.00;5114630;28;1865;-47
2021/12/11 09:36:57;;;;;;;;;;;;;;;6.74;83.18;94056.88;5114714;28;1059;-47
2021/12/11 09:39:26;;;;;;;;;;;;;;;6.82;81.96;94067.50;5114385;28;1993;-47
2021/12/11 09:41:52;;;;;;;;;;;;;;;6.77;82.08;94069.84;5114761;28;957;-47
2021/12/11 09:44:20;;;;;;;;;;;;;;;6.83;82.38;94065.69;5114203;28;1078;-47
2021/12/11 09:46:52;;;;;;;;;;;;;;;6.93;81.84;94063.69;5114299;28;1091;-47
2021/12/11 09:49:22;;;;;;;;;;;;;;;6.99;81.36;94052.41;5114317;28;1044;-47
2021/12/11 09:51:51;;;;;;;;;;;;;;;6.96;81.58;94057.22;5114605;28;960;-47
2021/12/11 09:54:23;;;;;;;;;;;;;;;6.95;82.39;94047.59;5114372;28;1067;-47
2021/12/11 09:56:49;;;;;;;;;;;;;;;6.89;81.76;94048.25;5114199;28;1031;-47
2021/12/11 09:59:16;;;;;;;;;;;;;;;6.92;81.92;94045.25;5113911;28;1995;-47
2021/12/11 10:01:44;;;;;;;;;;;;;;;6.90;82.16;94052.56;5114431;28;981;-47
2021/12/11 10:04:13;;;;;;;;;;;;;;;6.93;82.92;94039.78;5114329;28;977;-48
2021/12/11 10:06:44;;;;;;;;;;;;;;;7.04;82.06;94043.94;5114452;28;1057;-47
2021/12/11 10:09:18;;;;;;;;;;;;;;;7.01;82.22;94053.06;5114152;28;1063;-47
2021/12/11 10:12:07;;;;;;;;;;;;;;;7.09;82.20;94051.41;5114223;28;1902;-47
2021/12/11 10:14:35;;;;;;;;;;;;;;;7.12;82.36;94041.28;5105811;28;1461;-47
2021/12/11 10:17:08;;;;;;;;;;;;;;;7.19;82.49;94031.63;5114239;28;989;-47
2021/12/11 10:19:35;;;;;;;;;;;;;;;7.18;82.51;94037.13;5113689;28;1985;-47
2021/12/11 10:22:05;;;;;;;;;;;;;;;7.12;82.49;94035.13;5114186;28;924;-47
2021/12/11 10:24:32;;;;;;;;;;;;;;;7.05;82.80;94021.66;5113023;28;1064;-47
2021/12/11 10:26:59;;;;;;;;;;;;;;;7.01;82.89;94028.31;5114087;28;988;-47
2021/12/11 10:29:26;;;;;;;;;;;;;;;6.98;82.36;94023.31;5113305;28;1257;-48
2021/12/11 10:31:56;;;;;;;;;;;;;;;6.95;82.17;94019.19;5114100;28;1028;-47
2021/12/11 10:34:24;;;;;;;;;;;;;;;6.82;82.72;94016.19;5113895;28;977;-47
2021/12/11 10:37:05;;;;;;;;;;;;;;;6.83;83.18;94021.34;5113857;28;1127;-47
2021/12/11 10:39:31;;;;;;;;;;;;;;;6.84;82.25;94014.19;5113532;28;1913;-47
2021/12/11 10:41:58;;;;;;;;;;;;;;;6.83;82.27;94020.53;5113749;28;1982;-47
2021/12/11 10:44:26;;;;;;;;;;;;;;;6.80;81.72;94011.03;5113797;28;992;-47
2021/12/11 10:47:13;;;;;;;;;;;;;;;6.80;82.82;94010.22;5113989;28;973;-47
2021/12/11 10:49:39;;;;;;;;;;;;;;;6.81;82.15;94011.88;5102791;28;1831;-47
2021/12/11 10:52:26;;;;;;;;;;;;;;;6.88;82.41;94006.72;5113593;28;1095;-47
2021/12/11 10:54:53;;;;;;;;;;;;;;;6.92;82.56;93992.13;5113640;28;1172;-47
2021/12/11 10:57:20;;;;;;;;;;;;;;;6.94;82.68;93996.25;5113785;28;977;-47
2021/12/11 10:59:48;;;;;;;;;;;;;;;6.95;82.25;93986.47;5094497;28;1919;-47
2021/12/11 11:02:20;;;;;;;;;;;;;;;6.88;82.87;93974.84;5093600;28;1063;-47
2021/12/11 11:04:52;;;;;;;;;;;;;;;6.86;83.19;93977.66;5093213;28;1052;-47
2021/12/11 11:07:18;;;;;;;;;;;;;;;6.93;83.81;93983.97;5096342;28;992;-46
2021/12/11 11:09:45;;;;;;;;;;;;;;;7.02;83.56;93977.66;5096762;28;1119;-47
2021/12/11 11:12:14;;;;;;;;;;;;;;;7.12;84.00;93981.97;5097107;28;1334;-47
2021/12/11 11:14:41;;;;;;;;;;;;;;;7.07;83.76;93982.47;5097192;28;1025;-47
2021/12/11 11:17:10;;;;;;;;;;;;;;;7.07;83.50;93984.31;5096974;28;1111;-47
2021/12/11 11:19:38;;;;;;;;;;;;;;;7.10;83.63;93984.78;5096643;28;1988;-47
2021/12/11 11:22:07;;;;;;;;;;;;;;;7.16;83.73;93984.13;5097069;28;1068;-47
2021/12/11 11:24:35;;;;;;;;;;;;;;;7.13;83.20;93972.97;5095637;28;1215;-47
2021/12/11 11:27:02;;;;;;;;;;;;;;;7.11;84.10;93977.66;5096808;28;1077;-47
2021/12/11 11:29:29;;;;;;;;;;;;;;;7.02;84.97;93982.16;5102768;28;1343;-47
2021/12/11 11:31:59;;;;;;;;;;;;;;;6.92;84.34;93976.16;5116973;28;1038;-47
2021/12/11 11:34:26;;;;;;;;;;;;;;;6.92;84.47;93979.66;5117145;28;1052;-47
2021/12/11 11:36:53;;;;;;;;;;;;;;;6.92;85.02;93974.34;5117228;28;973;-47
2021/12/11 11:39:22;;;;;;;;;;;;;;;6.95;84.81;93963.38;5116660;28;1917;-47
2021/12/11 11:41:53;;;;;;;;;;;;;;;7.01;84.83;93967.19;5116655;28;1074;-46
2021/12/11 11:44:19;;;;;;;;;;;;;;;6.97;85.02;93969.34;5116947;28;1059;-47
2021/12/11 11:46:45;;;;;;;;;;;;;;;6.91;85.13;93954.09;5116680;28;1159;-47
2021/12/11 11:49:12;;;;;;;;;;;;;;;7.00;84.87;93965.53;5116949;28;1004;-47
2021/12/11 11:51:40;;;;;;;;;;;;;;;6.97;85.33;93963.22;5116552;27;1385;-47
2021/12/11 11:54:08;;;;;;;;;;;;;;;6.88;85.43;93975.66;5116652;28;1052;-47
2021/12/11 11:56:36;;;;;;;;;;;;;;;6.84;85.87;93961.88;5116559;28;1123;-47
2021/12/11 11:59:03;;;;;;;;;;;;;;;6.87;86.00;93957.22;5116609;27;1922;-47
2021/12/11 12:01:33;;;;;;;;;;;;;;;6.92;85.59;93955.72;5116740;28;1142;-47
2021/12/11 12:04:00;;;;;;;;;;;;;;;6.94;85.53;93974.16;5116646;28;1052;-47
2021/12/11 12:06:31;;;;;;;;;;;;;;;6.93;85.39;93959.25;5116249;28;1108;-47
2021/12/11 12:08:59;;;;;;;;;;;;;;;6.92;85.64;93962.88;5116493;28;1043;-47
2021/12/11 12:11:27;;;;;;;;;;;;;;;6.98;85.45;93959.53;5115977;28;1072;-47
2021/12/11 12:13:53;;;;;;;;;;;;;;;6.99;85.49;93961.22;5116125;28;1053;-47
2021/12/11 12:16:19;;;;;;;;;;;;;;;6.97;85.50;93960.56;5116099;28;1080;-47
2021/12/11 12:18:45;;;;;;;;;;;;;;;6.90;85.71;93962.22;5116279;28;1988;-47
2021/12/11 12:21:14;;;;;;;;;;;;;;;6.96;85.63;93959.75;5108618;28;1177;-47
2021/12/11 12:23:40;;;;;;;;;;;;;;;6.95;85.77;93963.38;5095444;28;1111;-47
2021/12/11 12:26:10;;;;;;;;;;;;;;;6.96;85.74;93966.88;5095544;28;1057;-47
2021/12/11 12:28:36;;;;;;;;;;;;;;;6.95;85.55;93965.22;5095566;28;1072;-47
2021/12/11 12:31:07;;;;;;;;;;;;;;;6.94;85.96;93963.53;5103350;28;1353;-47
2021/12/11 12:33:35;;;;;;;;;;;;;;;6.95;86.25;93959.91;5095393;28;984;-47
2021/12/11 12:36:01;;;;;;;;;;;;;;;6.95;85.87;93959.91;5095554;28;1052;-47
2021/12/11 12:38:29;;;;;;;;;;;;;;;6.99;85.49;93962.03;5095192;28;1033;-47
2021/12/11 12:41:00;;;;;;;;;;;;;;;7.01;85.36;93965.34;5095170;28;1976;-47
2021/12/11 12:46:23;;;;;;;;;;;;;;;7.04;85.96;93962.38;5095349;28;961;-47
2021/12/11 12:48:49;;;;;;;;;;;;;;;7.06;85.26;93954.25;5095098;28;1100;-47
2021/12/11 12:51:15;;;;;;;;;;;;;;;7.05;85.43;93955.22;5095129;28;1226;-47
2021/12/11 12:53:44;;;;;;;;;;;;;;;7.04;85.96;93958.91;5094954;28;1036;-47
2021/12/11 12:56:13;;;;;;;;;;;;;;;6.95;86.17;93966.03;5094962;28;977;-48
2021/12/11 12:58:42;;;;;;;;;;;;;;;7.01;86.27;93956.56;5094656;28;1988;-48
2021/12/11 13:01:14;;;;;;;;;;;;;;;7.06;85.91;93959.56;5094846;28;1061;-47
2021/12/11 13:03:42;;;;;;;;;;;;;;;7.03;86.42;93957.22;5095098;28;1052;-47
2021/12/11 13:06:10;;;;;;;;;;;;;;;7.03;86.05;93947.41;5094889;28;1036;-47
2021/12/11 13:08:39;;;;;;;;;;;;;;;7.08;86.05;93949.59;5094610;28;1121;-47
2021/12/11 13:11:09;;;;;;;;;;;;;;;7.02;85.63;93952.94;5094697;28;1039;-47
2021/12/11 13:13:36;;;;;;;;;;;;;;;7.02;86.01;93950.28;5094598;28;1045;-47
2021/12/11 13:16:05;;;;;;;;;;;;;;;7.01;86.69;93948.59;5094790;28;1000;-47
2021/12/11 13:18:33;;;;;;;;;;;;;;;7.04;86.69;93954.41;5094536;28;1084;-47
2021/12/11 13:21:05;;;;;;;;;;;;;;;7.07;86.67;93958.53;5094152;28;1984;-47
2021/12/11 13:23:33;;;;;;;;;;;;;;;7.06;86.69;93964.88;5093410;28;1044;-47
2021/12/11 13:26:00;;;;;;;;;;;;;;;7.10;86.88;93958.22;5094386;28;981;-47
2021/12/11 13:28:27;;;;;;;;;;;;;;;7.05;86.92;93963.19;5093712;28;1049;-46
2021/12/11 13:31:00;;;;;;;;;;;;;;;7.09;87.22;93958.38;5112968;28;1327;-47
2021/12/11 13:33:26;;;;;;;;;;;;;;;7.06;86.91;93961.38;5114697;28;1131;-47
2021/12/11 13:35:55;;;;;;;;;;;;;;;7.02;87.40;93968.88;5114581;28;973;-47
2021/12/11 13:38:22;;;;;;;;;;;;;;;7.10;88.04;93963.53;5114725;28;1040;-47
2021/12/11 13:40:52;;;;;;;;;;;;;;;7.13;87.74;93965.88;5114431;28;1906;-47
2021/12/11 13:43:18;;;;;;;;;;;;;;;7.22;87.02;93964.81;5114813;28;1000;-47
2021/12/11 13:45:47;;;;;;;;;;;;;;;7.22;86.09;93959.50;5115563;28;1012;-47
2021/12/11 13:48:15;;;;;;;;;;;;;;;7.18;87.44;93960.84;5115614;28;1036;-47
2021/12/11 13:50:49;;;;;;;;;;;;;;;7.18;87.81;93958.19;5114931;28;1052;-47
2021/12/11 13:53:15;;;;;;;;;;;;;;;7.22;87.48;93956.03;5115500;28;1064;-47
2021/12/11 13:55:41;;;;;;;;;;;;;;;7.30;86.92;93952.50;5115348;28;1057;-47
2021/12/11 13:58:09;;;;;;;;;;;;;;;7.28;86.76;93954.50;5114578;28;984;-47
2021/12/11 14:00:39;;;;;;;;;;;;;;;7.27;86.77;93968.81;5114981;28;1957;-47
2021/12/11 14:03:05;;;;;;;;;;;;;;;7.22;87.00;93962.16;5114971;28;1063;-47
2021/12/11 14:05:41;;;;;;;;;;;;;;;7.10;87.97;93968.03;5114418;28;1056;-47
2021/12/11 14:08:10;;;;;;;;;;;;;;;7.05;88.40;93971.16;5115071;28;1059;-47
2021/12/11 14:10:36;;;;;;;;;;;;;;;7.07;88.58;93976.31;5114903;28;1453;-47
2021/12/11 14:13:05;;;;;;;;;;;;;;;7.10;88.36;93976.81;5095081;28;1150;-47
2021/12/11 14:15:31;;;;;;;;;;;;;;;7.12;88.32;93974.81;5094410;28;1088;-47
2021/12/11 14:17:57;;;;;;;;;;;;;;;7.00;89.18;93963.72;5094331;28;1105;-47
2021/12/11 14:20:28;;;;;;;;;;;;;;;7.03;89.32;93957.22;5094407;28;1987;-47
2021/12/11 14:22:55;;;;;;;;;;;;;;;7.11;88.81;93962.50;5094116;28;1055;-47